Shawnee, OK

1:34 PM CDT on September 21, 2014 (GMT -0500)
Shawnee Municipal | Change Station
CLOSE
Current Station
Airport
Location: Shawnee,
Elevation: 1073 ft
Nearby Weather Stations

Elev 1073 ft 35.36 °N, 96.94 °W | Updated 19 minutes ago

Clear
Clear
88 °F
Feels Like 96 °F
N
9
Wind Variable Wind from North

Today
High -- | Low -- °F
--% Chance of Precip.
Yesterday
High -- | Low -- °F
Precip. -- in
7:14 AM 7:25 PM
Waning Crescent, 6% visible
Pressure 30.14 in
Visibility 10.0 miles
Clouds Scattered Clouds 3100 ft
Scattered Clouds 3700 ft
Heat Index 96 °F
Dew Point 73 °F
Humidity 62%
Rainfall 0.00 in
Snow Depth Not available.
UV 7 out of 12
Pollen 10.00 out of 12
Air Quality Not available.
Flu Activity Not available.
METAR KSNL 211815Z AUTO 01008KT 10SM SCT031 SCT037 31/23 A3014 RMK AO2

More Conditions Fewer Conditions

Pressure 30.14 in
Visibility 10.0 miles
Clouds Scattered Clouds 3100 ft
Scattered Clouds 3700 ft
Heat Index 96 °F
Dew Point 73 °F
Humidity 62%
Rainfall 0.00 in
Snow Depth Not available.
UV 7 out of 12
Pollen 10.00 out of 12
Air Quality Not available.
Flu Activity Not available.
METAR KSNL 211815Z AUTO 01008KT 10SM SCT031 SCT037 31/23 A3014 RMK AO2

More Conditions Fewer Conditions

10-Day Weather Forecast

Almanac

Astronomy

Sep. 21, 2014 Rise Set
Actual Time 7:14 AM CDT 7:25 PM CDT
Civil Twilight 6:49 AM CDT 7:51 PM CDT
Nautical Twilight 6:19 AM CDT 8:20 PM CDT
Astronomical Twilight 5:49 AM CDT 8:50 PM CDT
Moon 4:53 AM CDT 5:59 PM CDT
Length of Visible Light 13h 01m
Length of Day
12h 10m
Tomorrow will be 2m 12s shorter.
Waning Crescent, 6% of the Moon is Illuminated
Today
Waning Crescent
Sep 24
New
Oct 1
First Quarter
Oct 8
Full
Oct 15
Last Quarter

Today's Extremes

State Highs State Lows

Community

WunderPhotos

Upload Photos

1,755,212 photos uploaded!

WunderBlogs® & News

Nearby

Snow Depth

Station Depth Elevation
No new snow has been reported.

Earthquake Activity

City Distance Mag. Time & Date
Medford, Oklahoma 113 miles 3.2 2:10 AM CDT
2014-09-20
Luther, Oklahoma 26 miles 2.7 4:47 PM CDT
2014-09-19
Guthrie, Oklahoma 44 miles 3.6 12:23 PM CDT
2014-09-19
Jones, Oklahoma 26 miles 2.8 1:13 AM CDT
2014-09-19
Minimum magnitude displayed is 2.5.

Coastal Water Temperatures

Place Temperature
No Stations Reporting

Nearby Weather Stations